"WATCHING THE WEATHER TO PROTECT LIFE AND PROPERTY"


AKTUALMENTE NO TIN NINGUN VIGILANSIA ÒF ATVERTENSIA


Satelit (InfraRojo)


TNCA 250400Z 09016KT 9999 FEW018 29/25 Q1012 NOSIG
TNCB 250355Z AUTO 09012KT 9999 NCD 28/26 Q1013
TNCC 250400Z 09011KT 9999 FEW018 28/26 Q1013 NOSIG